Time;durP1;ratioP1;P1;durP2;ratioP2;P2;SDS_P1;SDS_P2;PMS_P1;PMS_P2;Temp;Humidity;BMP_temperature;BMP_pressure;BME280_temperature;BME280_humidity;BME280_pressure;Samples;Min_cycle;Max_cycle;Signal;HPM_P1;HPM_P2
2021/12/07 00:00:19;;;;;;;;;4.00;3.67;;;;;15.60;91.98;100563.59;5073647;28;8796;-69
2021/12/07 00:02:50;;;;;;;;;3.00;3.00;;;;;15.64;91.69;100559.19;5072775;28;8776;-69
2021/12/07 00:05:15;;;;;;;;;3.50;3.50;;;;;15.64;91.82;100561.81;5073537;28;8840;-70
2021/12/07 00:07:43;;;;;;;;;2.00;2.00;;;;;15.64;91.69;100569.72;5072392;28;8783;-70
2021/12/07 00:10:10;;;;;;;;;3.00;3.00;;;;;15.64;91.39;100564.47;5073704;28;8815;-69
2021/12/07 00:12:39;;;;;;;;;3.50;3.50;;;;;15.65;91.55;100571.47;5073155;28;9546;-69
2021/12/07 00:15:06;;;;;;;;;2.00;2.00;;;;;15.65;91.60;100574.13;5072460;28;8780;-69
2021/12/07 00:17:33;;;;;;;;;2.75;2.75;;;;;15.63;91.44;100570.63;5073468;28;8784;-70
2021/12/07 00:20:00;;;;;;;;;4.00;4.00;;;;;15.65;91.38;100579.38;5072766;28;8764;-68
2021/12/07 00:22:26;;;;;;;;;4.25;3.00;;;;;15.64;91.55;100569.72;5072529;28;8788;-68
2021/12/07 00:24:52;;;;;;;;;3.75;3.75;;;;;15.67;91.29;100585.53;5072753;28;8819;-69
2021/12/07 00:27:18;;;;;;;;;3.00;3.00;;;;;15.67;91.40;100585.53;5073009;28;8768;-68
2021/12/07 00:29:45;;;;;;;;;0.67;0.67;;;;;15.66;91.44;100589.91;5072188;28;9432;-68
2021/12/07 00:32:24;;;;;;;;;2.00;2.00;;;;;15.68;91.57;100597.78;5073043;28;8791;-69
2021/12/07 00:37:35;;;;;;;;;3.75;3.00;;;;;15.61;91.37;100589.03;5072101;28;8800;-69
2021/12/07 00:40:04;;;;;;;;;2.00;2.00;;;;;15.67;91.14;100602.16;5072388;28;8783;-68
2021/12/07 00:42:29;;;;;;;;;2.25;2.25;;;;;15.69;91.24;100616.22;5072681;28;8784;-69
2021/12/07 00:44:55;;;;;;;;;3.00;3.00;;;;;15.68;91.27;100609.19;5071766;28;9550;-69
2021/12/07 00:47:20;;;;;;;;;2.00;2.00;;;;;15.68;90.98;100621.47;5072636;28;8773;-68
2021/12/07 00:49:46;;;;;;;;;3.33;3.00;;;;;15.67;90.98;100623.22;5071649;28;9508;-69
2021/12/07 00:52:14;;;;;;;;;2.00;2.00;;;;;15.69;91.08;100626.75;5072595;28;8772;-69
2021/12/07 00:54:40;;;;;;;;;2.00;1.00;;;;;15.69;91.01;100625.84;5071716;28;8887;-68
2021/12/07 00:57:05;;;;;;;;;2.00;2.00;;;;;15.70;90.77;100635.50;5071912;28;8808;-69
2021/12/07 00:59:31;;;;;;;;;2.00;2.00;;;;;15.69;90.72;100637.25;5072532;28;8784;-69
2021/12/07 01:01:57;;;;;;;;;3.00;3.00;;;;;15.67;90.88;100627.63;5071893;28;8808;-69
2021/12/07 01:04:24;;;;;;;;;2.25;2.25;;;;;15.70;90.84;100652.19;5071743;28;8790;-69
2021/12/07 01:09:31;;;;;;;;;2.00;2.00;;;;;15.67;90.73;100649.53;5071581;28;9518;-69
2021/12/07 01:25:47;;;;;;;;;1.50;1.50;;;;;15.71;90.52;100690.75;5070785;28;8927;-68
2021/12/07 01:28:25;;;;;;;;;2.00;2.00;;;;;15.69;90.10;100700.44;5071878;28;8861;-68
2021/12/07 01:36:16;;;;;;;;;2.00;2.00;;;;;15.71;90.21;100706.56;5071379;28;9545;-68
2021/12/07 01:44:25;;;;;;;;;4.50;2.75;;;;;15.69;89.98;100696.91;5071566;28;8740;-68
2021/12/07 01:52:39;;;;;;;;;1.50;1.50;;;;;15.70;89.84;100712.72;5070976;28;8760;-69
2021/12/07 02:00:15;;;;;;;;;1.75;1.75;;;;;15.74;89.93;100743.44;5070678;28;8800;-69
2021/12/07 02:02:41;;;;;;;;;1.50;1.50;;;;;15.74;89.50;100750.44;5071193;28;8776;-69
2021/12/07 02:05:08;;;;;;;;;2.00;1.00;;;;;15.74;89.87;100758.34;5071386;28;8768;-68
2021/12/07 02:07:33;;;;;;;;;1.75;1.75;;;;;15.74;89.83;100759.22;5070678;28;8780;-68
2021/12/07 02:10:03;;;;;;;;;1.33;1.33;;;;;15.74;89.77;100761.84;5071274;28;8799;-69
2021/12/07 02:12:29;;;;;;;;;2.00;2.00;;;;;15.74;89.50;100755.72;5070710;28;8815;-69
2021/12/07 02:14:54;;;;;;;;;1.75;1.75;;;;;15.75;89.49;100765.34;5070276;28;8780;-69
2021/12/07 02:17:23;;;;;;;;;1.33;1.33;;;;;15.75;89.68;100762.69;5071418;28;8784;-69
2021/12/07 02:19:49;;;;;;;;;2.00;2.00;;;;;15.75;89.57;100771.47;5071285;28;8784;-69
2021/12/07 02:22:14;;;;;;;;;2.00;2.00;;;;;15.75;89.42;100760.06;5070143;28;8773;-69
2021/12/07 02:24:39;;;;;;;;;2.00;2.00;;;;;15.77;89.21;100771.50;5070813;28;8793;-69
2021/12/07 02:27:05;;;;;;;;;1.67;1.67;;;;;15.76;89.34;100775.88;5070869;28;8812;-69
2021/12/07 02:29:34;;;;;;;;;2.00;2.00;;;;;15.76;89.20;100781.13;5070320;28;8799;-69
2021/12/07 02:32:01;;;;;;;;;2.25;2.00;;;;;15.74;89.34;100772.38;5070883;28;8796;-69
2021/12/07 02:34:26;;;;;;;;;2.00;2.00;;;;;15.76;89.23;100789.03;5071215;28;9547;-69
2021/12/07 02:36:53;;;;;;;;;0.67;0.67;;;;;15.77;89.36;100787.28;5070046;28;8788;-69
2021/12/07 02:39:28;;;;;;;;;2.25;1.50;;;;;15.77;89.37;100790.78;5071074;28;8771;-68
2021/12/07 02:41:53;;;;;;;;;3.00;1.25;;;;;15.75;88.93;100800.44;5070576;28;8764;-69
2021/12/07 02:44:19;;;;;;;;;1.00;1.00;;;;;15.78;88.84;100804.84;5070441;28;9524;-69
2021/12/07 02:46:44;;;;;;;;;1.00;1.00;;;;;15.77;89.00;100803.97;5070671;28;8816;-69
2021/12/07 02:49:09;;;;;;;;;1.00;1.00;;;;;15.76;88.98;100807.47;5070995;28;8769;-68
2021/12/07 02:51:35;;;;;;;;;3.67;1.67;;;;;15.78;88.87;100810.97;5070115;28;9634;-69
2021/12/07 02:54:01;;;;;;;;;1.00;1.00;;;;;15.77;88.89;100813.59;5070703;28;8777;-69
2021/12/07 02:56:26;;;;;;;;;2.00;1.25;;;;;15.75;88.72;100807.44;5070017;28;8789;-69
2021/12/07 02:58:57;;;;;;;;;3.00;2.00;;;;;15.77;88.57;100813.59;5070680;28;8848;-69
2021/12/07 03:01:27;;;;;;;;;2.50;2.50;;;;;15.75;88.76;100805.69;5070887;28;8883;-68
2021/12/07 03:04:01;;;;;;;;;1.00;1.00;;;;;15.77;88.37;100810.97;5069735;28;8768;-67
2021/12/07 03:06:39;;;;;;;;;1.50;1.50;;;;;15.77;88.26;100808.34;5070915;28;8816;-68
2021/12/07 03:27:57;;;;;;;;;2.00;2.00;;;;;15.73;88.09;100839.06;5070083;28;8803;-68
2021/12/07 03:30:24;;;;;;;;;3.00;2.67;;;;;15.78;88.17;100845.19;5070529;28;8853;-69
2021/12/07 03:32:49;;;;;;;;;4.00;2.00;;;;;15.72;87.97;100833.78;5070250;28;9634;-68
2021/12/07 03:35:16;;;;;;;;;1.00;1.00;;;;;15.77;88.18;100845.19;5074178;28;8945;-67
2021/12/07 03:37:41;;;;;;;;;1.00;1.00;;;;;15.72;87.84;100841.66;5073781;28;8773;-67
2021/12/07 03:40:09;;;;;;;;;4.00;3.00;;;;;15.78;87.88;100852.22;5073356;28;8781;-67
2021/12/07 03:42:35;;;;;;;;;1.50;1.50;;;;;15.77;87.88;100855.72;5073808;28;8772;-67
2021/12/07 03:45:00;;;;;;;;;1.00;1.00;;;;;15.79;87.67;100860.09;5073770;28;9522;-67
2021/12/07 03:47:26;;;;;;;;;2.00;2.00;;;;;15.78;87.89;100858.34;5073104;28;8761;-68
2021/12/07 03:49:53;;;;;;;;;0.00;0.00;;;;;15.76;87.88;100854.84;5073645;28;8836;-68
2021/12/07 03:52:19;;;;;;;;;1.00;1.00;;;;;15.76;87.69;100856.59;5073974;28;8805;-68
2021/12/07 03:54:47;;;;;;;;;0.00;0.00;;;;;15.79;87.72;100867.13;5072489;28;9492;-67
2021/12/07 03:57:12;;;;;;;;;2.50;1.00;;;;;15.78;87.30;100853.06;5073791;28;8800;-67
2021/12/07 03:59:37;;;;;;;;;0.00;0.00;;;;;15.78;87.42;100860.97;5072893;28;8811;-68
2021/12/07 04:02:03;;;;;;;;;1.00;1.00;;;;;15.79;87.47;100869.75;5073238;28;8784;-67
2021/12/07 04:04:28;;;;;;;;;0.00;0.00;;;;;15.75;87.31;100863.59;5073396;28;8792;-68
2021/12/07 04:06:54;;;;;;;;;1.33;1.33;;;;;15.80;87.77;100872.41;5072584;28;9555;-67
2021/12/07 04:09:19;;;;;;;;;2.00;2.00;;;;;15.80;87.39;100875.03;5073557;28;8768;-67
2021/12/07 04:11:45;;;;;;;;;0.67;0.00;;;;;15.80;87.51;100869.75;5073122;28;8803;-67
2021/12/07 04:14:10;;;;;;;;;2.00;2.00;;;;;15.81;87.24;100866.25;5072424;28;8836;-68
2021/12/07 04:16:35;;;;;;;;;1.00;1.00;;;;;15.80;87.30;100880.28;5073354;28;8819;-67
2021/12/07 04:19:01;;;;;;;;;0.00;0.00;;;;;15.81;87.33;100889.06;5072931;28;8799;-68
2021/12/07 04:21:26;;;;;;;;;1.00;1.00;;;;;15.81;87.08;100883.81;5072317;28;8776;-68
2021/12/07 04:23:52;;;;;;;;;1.00;1.00;;;;;15.79;87.16;100877.66;5072888;28;8781;-67
2021/12/07 04:26:17;;;;;;;;;0.67;0.67;;;;;15.78;86.89;100883.81;5072678;28;8855;-67
2021/12/07 04:28:43;;;;;;;;;1.33;1.33;;;;;15.80;86.63;100871.50;5071940;28;8781;-67
2021/12/07 04:31:10;;;;;;;;;1.00;1.00;;;;;15.82;87.05;100875.88;5073046;28;9617;-68
2021/12/07 04:33:36;;;;;;;;;1.50;1.50;;;;;15.79;86.95;100882.91;5073134;28;8768;-67
2021/12/07 04:36:03;;;;;;;;;1.00;1.00;;;;;15.83;86.71;100882.91;5071918;28;8869;-68
2021/12/07 04:38:28;;;;;;;;;0.00;0.00;;;;;15.83;86.90;100890.81;5072977;28;8886;-68
2021/12/07 04:40:54;;;;;;;;;0.67;0.33;;;;;15.79;86.67;100891.69;5072286;28;8796;-68
2021/12/07 04:43:19;;;;;;;;;0.67;0.67;;;;;15.83;86.72;100903.97;5072060;28;8799;-68
2021/12/07 04:45:56;;;;;;;;;1.00;1.00;;;;;15.71;82.25;100897.84;5072499;28;8935;-68
2021/12/07 04:59:10;;;;;;;;;1.00;1.00;;;;;15.87;86.41;100899.59;5072439;28;8748;-67
2021/12/07 05:01:35;;;;;;;;;1.00;1.00;;;;;15.86;86.10;100903.09;5072563;28;8816;-67
2021/12/07 05:04:07;;;;;;;;;1.00;1.00;;;;;15.87;86.39;100899.59;5071395;28;8788;-68
2021/12/07 05:06:35;;;;;;;;;2.25;1.75;;;;;15.88;86.21;100901.38;5072226;28;8808;-69
2021/12/07 05:09:21;;;;;;;;;0.75;0.75;;;;;15.87;86.18;100905.75;5072023;28;8783;-67
2021/12/07 05:14:20;;;;;;;;;1.00;1.00;;;;;15.86;86.09;100909.25;5071973;28;8869;-68
2021/12/07 05:38:23;;;;;;;;;1.25;1.00;;;;;15.87;85.71;100975.94;5070998;28;8772;-68
2021/12/07 05:40:51;;;;;;;;;1.00;1.00;;;;;15.87;85.60;100984.72;5071439;28;8788;-68
2021/12/07 05:43:17;;;;;;;;;1.25;1.00;;;;;15.88;85.68;100980.34;5071679;28;8768;-68
2021/12/07 05:45:45;;;;;;;;;1.00;1.00;;;;;15.86;85.50;100982.09;5070430;28;8796;-68
2021/12/07 05:48:10;;;;;;;;;1.00;1.00;;;;;15.88;85.71;100982.97;5071401;28;8846;-68
2021/12/07 05:50:41;;;;;;;;;1.67;1.00;;;;;15.88;85.61;100983.88;5071626;28;8777;-68
2021/12/07 05:53:08;;;;;;;;;0.00;0.00;;;;;15.87;85.45;100982.09;5070948;28;8838;-69
2021/12/07 05:55:34;;;;;;;;;0.75;0.75;;;;;15.84;85.37;100963.66;5070712;28;9547;-68
2021/12/07 05:58:00;;;;;;;;;0.25;0.25;;;;;15.84;85.30;100958.41;5070944;28;8784;-68
2021/12/07 06:00:28;;;;;;;;;0.67;0.67;;;;;15.87;85.41;100968.06;5070939;28;8780;-68
2021/12/07 06:02:58;;;;;;;;;0.75;0.75;;;;;15.85;85.40;100962.81;5071076;28;9737;-68
2021/12/07 06:05:25;;;;;;;;;1.00;1.00;;;;;15.87;85.38;100963.66;5071460;28;8910;-68
2021/12/07 06:07:51;;;;;;;;;0.25;0.00;;;;;15.85;85.32;100960.16;5070217;28;8780;-68
2021/12/07 06:10:17;;;;;;;;;0.33;0.33;;;;;15.86;85.13;100954.00;5071343;28;8795;-68
2021/12/07 06:12:42;;;;;;;;;0.00;0.00;;;;;15.85;84.92;100957.53;5070614;28;8786;-68
2021/12/07 06:15:32;;;;;;;;;0.67;0.67;;;;;15.87;85.18;100955.78;5070740;28;8883;-68
2021/12/07 06:17:58;;;;;;;;;0.00;0.00;;;;;15.86;84.82;100959.28;5064981;28;8804;-68
2021/12/07 06:20:23;;;;;;;;;1.00;1.00;;;;;15.87;85.15;100952.25;5070560;28;8788;-69
2021/12/07 06:22:49;;;;;;;;;0.00;0.00;;;;;15.88;84.84;100959.28;5070797;28;8899;-68
2021/12/07 06:25:14;;;;;;;;;0.67;0.67;;;;;15.88;84.99;100959.28;5070745;28;8804;-68
2021/12/07 06:27:40;;;;;;;;;1.67;1.00;;;;;15.88;84.95;100959.28;5070125;28;8829;-68
2021/12/07 06:30:07;;;;;;;;;0.00;0.00;;;;;15.88;84.83;100957.53;5071337;28;8773;-68
2021/12/07 06:32:33;;;;;;;;;1.00;1.00;;;;;15.89;84.98;100961.94;5070527;28;8780;-69
2021/12/07 06:34:58;;;;;;;;;1.00;1.00;;;;;15.87;84.97;100975.94;5069970;28;8779;-68
2021/12/07 06:37:23;;;;;;;;;1.00;1.00;;;;;15.89;84.77;100975.09;5070730;28;8795;-70
2021/12/07 06:39:49;;;;;;;;;1.00;1.00;;;;;15.89;84.69;100968.94;5069596;28;8777;-70
2021/12/07 06:42:14;;;;;;;;;1.00;1.00;;;;;15.87;84.57;100968.06;5069118;28;8819;-70
2021/12/07 06:44:39;;;;;;;;;0.00;0.00;;;;;15.89;84.67;100964.56;5071189;28;8768;-70
2021/12/07 06:47:05;;;;;;;;;0.00;0.00;;;;;15.88;84.13;100972.44;5071481;28;9564;-69
2021/12/07 06:49:31;;;;;;;;;0.00;0.00;;;;;15.85;84.03;100969.81;5051654;28;8926;-67
2021/12/07 06:51:57;;;;;;;;;0.33;0.33;;;;;15.87;84.38;100968.94;5050531;28;8789;-66
2021/12/07 06:54:22;;;;;;;;;0.00;0.00;;;;;15.89;84.54;100961.94;5050832;28;8767;-67
2021/12/07 06:56:48;;;;;;;;;1.00;1.00;;;;;15.91;84.38;100961.91;5066916;28;8790;-67
2021/12/07 06:59:13;;;;;;;;;1.33;1.33;;;;;15.95;84.32;100961.94;5070836;28;8776;-66
2021/12/07 07:01:38;;;;;;;;;4.00;2.67;;;;;16.02;84.66;100965.44;5070952;28;9491;-67
2021/12/07 07:04:04;;;;;;;;;6.00;5.33;;;;;16.10;84.62;100976.88;5069917;28;8788;-67
2021/12/07 07:06:32;;;;;;;;;7.00;6.33;;;;;16.15;84.98;100967.22;5070610;28;8820;-66
2021/12/07 07:08:57;;;;;;;;;5.50;4.00;;;;;16.24;85.14;100974.25;5073147;28;8818;-68
2021/12/07 07:11:23;;;;;;;;;8.33;6.33;;;;;16.33;84.80;100971.63;5075714;28;8792;-67
2021/12/07 07:13:48;;;;;;;;;5.00;4.00;;;;;16.39;85.23;100983.03;5074458;28;8784;-69
2021/12/07 07:16:15;;;;;;;;;7.67;5.67;;;;;16.49;84.99;100988.31;5074626;28;8772;-67
2021/12/07 07:18:43;;;;;;;;;4.75;3.50;;;;;16.55;84.84;100983.91;5067508;28;8791;-67
2021/12/07 07:21:08;;;;;;;;;8.50;6.25;;;;;16.60;85.39;100990.09;5061644;28;8800;-66
2021/12/07 07:23:34;;;;;;;;;6.67;6.00;;;;;16.61;85.19;100994.47;5073662;28;8893;-68
2021/12/07 07:26:00;;;;;;;;;6.75;4.75;;;;;16.61;85.25;100997.09;5072911;28;8901;-68
2021/12/07 07:28:28;;;;;;;;;6.00;3.67;;;;;16.62;85.05;100985.69;5069737;28;8788;-69
2021/12/07 07:30:54;;;;;;;;;4.75;3.25;;;;;16.61;84.84;100975.16;5073088;28;8761;-69
2021/12/07 07:33:20;;;;;;;;;3.75;3.75;;;;;16.61;84.89;100967.25;5073867;28;8850;-68
2021/12/07 07:35:46;;;;;;;;;4.00;4.00;;;;;16.60;85.01;100961.09;5060338;28;8791;-69
2021/12/07 07:38:12;;;;;;;;;6.00;4.00;;;;;16.57;85.10;100950.53;5053324;28;11491;-69
2021/12/07 07:40:37;;;;;;;;;4.00;1.33;;;;;16.52;84.74;100951.41;5055322;28;8823;-69
2021/12/07 07:43:03;;;;;;;;;2.67;2.67;;;;;16.52;84.88;100959.31;5066263;28;8795;-70
2021/12/07 07:45:29;;;;;;;;;5.00;3.00;;;;;16.48;84.88;100952.28;5052789;28;8839;-69
2021/12/07 07:47:55;;;;;;;;;6.75;3.75;;;;;16.46;84.84;100956.69;5052987;28;8791;-71
2021/12/07 07:50:21;;;;;;;;;4.00;4.00;;;;;16.46;85.07;100952.28;5053415;28;8811;-71
2021/12/07 07:52:47;;;;;;;;;3.00;2.00;;;;;16.44;84.58;100954.03;5052173;28;8799;-71
2021/12/07 07:55:14;;;;;;;;;3.00;3.00;;;;;16.42;84.59;100953.19;5056430;28;8827;-72
2021/12/07 07:57:40;;;;;;;;;4.00;3.75;;;;;16.41;84.64;100957.56;5065216;28;11867;-72
2021/12/07 08:00:08;;;;;;;;;3.67;3.00;;;;;16.37;84.49;100960.19;5089706;22;11071;-71
2021/12/07 08:02:34;;;;;;;;;2.75;2.00;;;;;16.37;84.55;100960.19;5065610;22;9039;-68
2021/12/07 08:04:59;;;;;;;;;2.00;2.00;;;;;16.40;84.52;100974.25;5036912;28;8853;-70
2021/12/07 08:07:25;;;;;;;;;3.33;2.00;;;;;16.40;84.88;100968.09;5032858;28;9557;-70
2021/12/07 08:09:50;;;;;;;;;3.00;2.00;;;;;16.39;84.85;100971.59;5033159;28;8855;-70
2021/12/07 08:12:19;;;;;;;;;3.00;3.00;;;;;16.35;84.46;100957.56;5040792;22;9686;-70
2021/12/07 08:14:44;;;;;;;;;3.75;1.50;;;;;16.39;84.69;100963.69;5028658;28;8805;-69
2021/12/07 08:17:09;;;;;;;;;3.00;3.00;;;;;16.38;84.37;100957.56;5032816;28;8798;-70
2021/12/07 08:19:36;;;;;;;;;2.33;2.33;;;;;16.38;84.66;100959.34;5032782;28;8792;-71
2021/12/07 08:22:13;;;;;;;;;3.00;2.50;;;;;16.33;84.34;100951.41;5039186;22;8850;-70
2021/12/07 08:24:38;;;;;;;;;3.50;3.50;;;;;16.27;84.53;100935.59;5030588;28;8881;-70
2021/12/07 08:27:04;;;;;;;;;5.00;2.67;;;;;16.37;84.21;100955.81;5004195;28;11091;-70
2021/12/07 08:29:29;;;;;;;;;1.67;1.67;;;;;16.33;84.12;100954.06;4993929;28;8787;-70
2021/12/07 08:31:54;;;;;;;;;4.67;3.00;;;;;16.36;84.27;100958.44;4992352;28;8814;-70
2021/12/07 08:34:19;;;;;;;;;3.67;2.33;;;;;16.37;84.15;100976.91;5079582;23;8883;-70
2021/12/07 08:36:45;;;;;;;;;2.00;2.00;;;;;16.36;84.00;100964.59;5032800;28;8792;-70
2021/12/07 08:39:10;;;;;;;;;1.67;1.67;;;;;16.36;84.04;100971.63;5032805;28;8903;-70
2021/12/07 08:41:36;;;;;;;;;3.00;2.67;;;;;16.37;83.94;100969.00;5031758;28;8954;-70
2021/12/07 08:44:01;;;;;;;;;2.33;2.33;;;;;16.37;83.46;100976.91;5030898;28;8807;-71
2021/12/07 08:46:27;;;;;;;;;3.00;3.00;;;;;16.38;83.65;100973.34;5032426;28;8826;-70
2021/12/07 08:48:52;;;;;;;;;5.67;2.33;;;;;16.37;83.84;100962.84;5031532;28;8791;-70
2021/12/07 08:51:18;;;;;;;;;3.00;2.00;;;;;16.36;83.95;100958.44;5032517;28;8792;-70
2021/12/07 08:54:27;;;;;;;;;5.67;5.00;;;;;16.33;83.52;100959.31;5030786;28;8824;-70
2021/12/07 08:59:42;;;;;;;;;5.00;2.50;;;;;16.34;83.95;100965.47;5032461;28;8756;-71
2021/12/07 09:02:10;;;;;;;;;4.00;4.00;;;;;16.35;83.58;100962.81;5031258;28;8816;-68
2021/12/07 09:04:35;;;;;;;;;6.00;4.75;;;;;16.36;83.30;100963.72;5026284;28;11076;-69
2021/12/07 09:07:01;;;;;;;;;5.00;5.00;;;;;16.37;83.25;100958.44;5024048;28;11896;-70
2021/12/07 09:09:28;;;;;;;;;4.67;4.67;;;;;16.38;83.41;100954.91;5020655;28;10782;-69
2021/12/07 09:11:54;;;;;;;;;4.00;4.00;;;;;16.44;83.17;100969.84;5031802;28;8851;-70
2021/12/07 09:14:19;;;;;;;;;5.00;4.00;;;;;16.44;83.14;100970.75;5028876;28;10808;-70
2021/12/07 09:16:45;;;;;;;;;6.33;5.00;;;;;16.47;83.05;100971.59;5030587;28;9032;-69
2021/12/07 09:19:11;;;;;;;;;7.00;5.00;;;;;16.46;83.22;100968.09;5032331;28;8788;-70
2021/12/07 09:21:38;;;;;;;;;6.00;6.00;;;;;16.47;83.26;100975.13;5031867;28;9609;-70
2021/12/07 09:24:03;;;;;;;;;4.75;3.75;;;;;16.47;83.19;100972.50;5029136;28;8838;-70
2021/12/07 09:26:29;;;;;;;;;5.00;4.33;;;;;16.48;83.00;100970.72;5031829;28;8832;-70
2021/12/07 09:28:54;;;;;;;;;4.00;4.00;;;;;16.48;82.76;100974.25;5031657;28;8792;-69
2021/12/07 09:31:22;;;;;;;;;3.67;3.67;;;;;16.47;82.70;100958.44;5030022;28;8784;-70
2021/12/07 09:33:48;;;;;;;;;5.00;4.50;;;;;16.49;83.02;100960.22;5028872;28;8863;-70
2021/12/07 09:36:14;;;;;;;;;4.00;4.00;;;;;16.50;83.01;100959.31;5028078;28;8824;-69
2021/12/07 09:38:41;;;;;;;;;4.00;4.00;;;;;16.51;82.70;100965.47;5029234;28;10865;-70
2021/12/07 09:41:10;;;;;;;;;4.00;3.25;;;;;16.52;82.69;100976.00;5029881;28;10859;-72
2021/12/07 09:43:36;;;;;;;;;5.00;3.67;;;;;16.53;82.69;100975.13;5027694;28;10855;-70
2021/12/07 09:46:03;;;;;;;;;4.75;4.00;;;;;16.53;82.99;100971.63;5030319;28;8916;-71
2021/12/07 09:48:28;;;;;;;;;5.50;4.75;;;;;16.54;82.77;100968.09;5031383;28;8865;-71
2021/12/07 09:50:55;;;;;;;;;6.00;4.33;;;;;16.53;82.55;100972.50;5031218;28;8787;-71
2021/12/07 09:53:23;;;;;;;;;4.00;3.50;;;;;16.55;82.35;100977.75;5028573;28;8800;-71
2021/12/07 09:55:52;;;;;;;;;3.00;3.00;;;;;16.56;82.51;100987.44;5031118;28;8795;-71
2021/12/07 09:58:19;;;;;;;;;4.50;3.75;;;;;16.56;82.25;100984.78;5030362;28;8799;-70
2021/12/07 10:00:48;;;;;;;;;3.25;3.25;;;;;16.56;82.27;100985.72;5030481;28;8794;-70
2021/12/07 10:03:15;;;;;;;;;3.00;2.00;;;;;16.58;82.13;100977.78;5030225;28;8792;-69
2021/12/07 10:05:41;;;;;;;;;3.25;2.25;;;;;16.59;82.42;100976.91;5028267;28;8850;-72
2021/12/07 10:08:08;;;;;;;;;3.00;3.00;;;;;16.59;82.41;100974.28;5030947;28;8800;-70
2021/12/07 10:10:46;;;;;;;;;2.75;2.75;;;;;16.60;82.10;100971.66;5030814;28;8804;-71
2021/12/07 10:13:14;;;;;;;;;3.50;3.50;;;;;16.58;82.13;100970.75;5024921;28;9661;-70
2021/12/07 10:15:40;;;;;;;;;4.00;4.00;;;;;16.63;82.41;100976.03;5030805;28;8772;-80
2021/12/07 10:18:18;;;;;;;;;2.75;2.75;;;;;16.64;81.80;100968.13;5030859;28;8748;-69
2021/12/07 10:20:50;;;;;;;;;2.25;2.25;;;;;16.66;81.79;100958.44;5030280;28;8792;-69
2021/12/07 10:23:21;;;;;;;;;4.00;2.00;;;;;16.66;81.84;100958.44;5031229;28;8788;-69
2021/12/07 10:26:08;;;;;;;;;3.25;2.75;;;;;16.65;82.19;100940.88;5030719;28;8997;-69
2021/12/07 10:28:42;;;;;;;;;3.50;3.50;;;;;16.67;81.71;100935.59;5023515;28;8869;-68
2021/12/07 10:31:07;;;;;;;;;2.25;2.00;;;;;16.67;81.58;100933.84;5030247;28;8812;-69
2021/12/07 10:33:42;;;;;;;;;3.33;3.33;;;;;16.67;81.48;100927.69;5024349;28;8837;-69
2021/12/07 10:36:17;;;;;;;;;1.75;1.75;;;;;16.64;81.67;100904.88;5011504;28;8786;-70
2021/12/07 10:38:49;;;;;;;;;2.25;2.25;;;;;16.66;81.85;100905.72;5011193;28;8791;-69
2021/12/07 10:41:18;;;;;;;;;2.00;2.00;;;;;16.67;81.78;100906.59;5010375;28;8799;-69
2021/12/07 10:43:43;;;;;;;;;4.00;2.75;;;;;16.66;81.41;100903.09;5015333;28;8890;-70
2021/12/07 10:46:27;;;;;;;;;2.67;2.00;;;;;16.68;81.60;100908.38;5020572;28;8973;-72
2021/12/07 10:49:14;;;;;;;;;1.00;1.00;;;;;16.67;80.94;100893.44;5016046;28;8835;-69
2021/12/07 10:51:41;;;;;;;;;2.25;2.25;;;;;16.66;81.18;100894.31;5015141;28;8845;-67
2021/12/07 10:54:07;;;;;;;;;1.75;1.75;;;;;16.67;81.57;100896.94;5015035;28;8823;-69
2021/12/07 10:56:36;;;;;;;;;2.00;2.00;;;;;16.70;81.36;100889.03;5028862;28;8796;-68
2021/12/07 10:59:05;;;;;;;;;1.25;1.25;;;;;16.70;81.12;100891.66;5035012;28;8791;-69
2021/12/07 11:01:36;;;;;;;;;2.00;2.00;;;;;16.69;81.52;100889.91;5035773;28;8842;-68
2021/12/07 11:04:30;;;;;;;;;2.75;2.00;;;;;16.71;81.25;100901.34;5035102;28;8803;-71
2021/12/07 11:07:34;;;;;;;;;1.50;1.50;;;;;16.70;80.99;100888.13;5035721;28;8862;-71
2021/12/07 11:10:10;;;;;;;;;2.00;2.00;;;;;16.70;80.64;100886.38;4972901;28;8845;-71
2021/12/07 11:12:53;;;;;;;;;2.00;1.00;;;;;16.72;80.95;100886.41;4973364;28;8809;-71
2021/12/07 11:15:23;;;;;;;;;2.00;2.00;;;;;16.72;80.77;100881.13;5013566;28;8768;-71
2021/12/07 11:17:49;;;;;;;;;4.00;3.00;;;;;16.71;80.68;100882.88;5033655;28;8772;-71
2021/12/07 11:20:15;;;;;;;;;3.50;1.75;;;;;16.72;80.63;100875.84;5032556;28;8911;-71
2021/12/07 11:22:45;;;;;;;;;2.33;2.33;;;;;16.67;80.64;100873.22;5034000;28;9634;-71
2021/12/07 11:25:14;;;;;;;;;1.33;1.33;;;;;16.71;80.23;100868.81;5014598;28;8758;-72
2021/12/07 11:30:31;;;;;;;;;2.67;2.00;;;;;16.66;80.09;100857.41;5013561;28;8754;-78
2021/12/07 11:32:59;;;;;;;;;2.00;2.00;;;;;16.79;80.08;100854.72;5013880;28;8915;-77
2021/12/07 11:35:29;;;;;;;;;4.67;3.00;;;;;16.87;79.38;100847.63;5014305;28;8812;-79
2021/12/07 11:37:57;;;;;;;;;3.33;3.33;;;;;16.91;79.41;100845.88;5018530;28;8886;-79
2021/12/07 11:40:30;;;;;;;;;5.00;5.00;;;;;16.91;79.73;100830.03;5015501;28;8876;-75
2021/12/07 11:42:55;;;;;;;;;2.67;2.67;;;;;16.96;79.86;100837.94;5013529;28;8874;-76
2021/12/07 11:45:28;;;;;;;;;5.33;3.67;;;;;16.96;79.19;100830.91;5013299;28;8893;-77
2021/12/07 11:48:05;;;;;;;;;3.00;3.00;;;;;16.96;79.59;100820.38;5013657;28;8840;-74
2021/12/07 11:50:41;;;;;;;;;1.67;1.67;;;;;16.97;79.20;100823.88;5013541;28;8878;-74
2021/12/07 11:53:13;;;;;;;;;3.00;3.00;;;;;16.94;78.72;100802.81;5012321;28;9030;-77
2021/12/07 11:55:42;;;;;;;;;4.75;3.00;;;;;16.99;78.14;100811.53;5020959;28;8871;-73
2021/12/07 11:58:09;;;;;;;;;5.25;2.00;;;;;17.01;79.36;100801.88;5032841;28;8786;-74
2021/12/07 12:00:43;;;;;;;;;6.67;4.33;;;;;16.97;78.55;100785.19;5033225;28;8804;-74
2021/12/07 12:03:13;;;;;;;;;1.50;0.75;;;;;17.00;79.07;100773.75;5033504;28;9020;-74
2021/12/07 12:05:41;;;;;;;;;4.33;4.33;;;;;17.01;78.80;100770.22;5032275;28;8888;-74
2021/12/07 12:08:09;;;;;;;;;4.75;3.00;;;;;16.99;78.57;100761.44;5033378;28;8946;-74
2021/12/07 12:10:41;;;;;;;;;3.50;2.50;;;;;16.96;77.87;100750.91;5033414;28;8792;-75
2021/12/07 12:13:17;;;;;;;;;3.00;2.25;;;;;16.99;79.23;100735.06;5032498;28;8775;-75
2021/12/07 12:16:06;;;;;;;;;2.33;2.33;;;;;16.99;78.60;100738.56;5032855;28;8792;-75
2021/12/07 12:18:39;;;;;;;;;3.00;3.00;;;;;16.99;79.79;100737.69;5033030;28;8878;-74
2021/12/07 12:21:37;;;;;;;;;4.67;3.33;;;;;16.99;79.69;100737.69;5035270;28;8772;-75
2021/12/07 12:24:32;;;;;;;;;6.00;3.00;;;;;16.97;80.24;100727.19;5033105;28;8887;-75
2021/12/07 12:27:10;;;;;;;;;5.50;5.00;;;;;16.96;81.26;100721.91;5032333;28;8908;-75
2021/12/07 12:29:38;;;;;;;;;2.75;2.75;;;;;16.94;80.18;100721.94;5032595;28;8792;-75
2021/12/07 12:32:14;;;;;;;;;3.00;3.00;;;;;16.96;79.08;100720.13;5032840;28;8799;-77
2021/12/07 12:34:49;;;;;;;;;3.25;3.00;;;;;17.00;79.15;100716.59;5031618;28;8850;-77
2021/12/07 12:37:23;;;;;;;;;2.50;2.50;;;;;17.02;80.02;100706.06;5044642;22;9586;-78
2021/12/07 12:39:56;;;;;;;;;3.00;2.00;;;;;17.02;80.02;100708.69;5032885;28;8787;-77
2021/12/07 12:42:37;;;;;;;;;4.25;4.25;;;;;17.03;79.69;100700.75;5032353;28;8779;-77
2021/12/07 12:45:11;;;;;;;;;4.75;4.00;;;;;17.08;80.12;100695.44;5032726;28;8794;-77
2021/12/07 12:47:39;;;;;;;;;3.00;3.00;;;;;17.08;80.08;100685.78;5019378;28;8810;-76
2021/12/07 12:50:18;;;;;;;;;2.00;2.00;;;;;17.08;77.23;100685.78;5013045;28;8790;-77
2021/12/07 12:52:50;;;;;;;;;4.75;2.75;;;;;17.10;79.84;100684.00;5012607;28;8782;-74
2021/12/07 12:55:26;;;;;;;;;3.00;3.00;;;;;17.08;79.47;100647.97;5016296;28;8772;-74
2021/12/07 13:01:05;;;;;;;;;4.50;3.75;;;;;17.06;79.15;100640.06;5282921;22;8866;-74
2021/12/07 13:03:43;;;;;;;;;3.75;3.75;;;;;17.05;79.72;100648.88;4991634;28;8853;-74
2021/12/07 13:06:20;;;;;;;;;2.75;2.75;;;;;17.05;80.15;100626.91;5072257;22;8852;-74
2021/12/07 13:09:01;;;;;;;;;3.00;3.00;;;;;17.02;80.18;100622.50;5031157;28;8896;-73
2021/12/07 13:12:02;;;;;;;;;2.50;2.00;;;;;17.01;79.83;100617.25;5032301;28;8876;-78
2021/12/07 13:14:40;;;;;;;;;3.00;2.75;;;;;16.99;79.74;100597.91;5028166;28;8833;-78
2021/12/07 13:17:16;;;;;;;;;3.75;2.50;;;;;17.04;79.85;100601.41;5030912;28;9533;-80
2021/12/07 13:20:04;;;;;;;;;2.00;1.50;;;;;17.03;79.46;100583.81;5029014;28;8825;-78
2021/12/07 13:22:40;;;;;;;;;3.75;3.75;;;;;17.07;79.62;100591.69;4991998;28;8826;-76
2021/12/07 13:25:19;;;;;;;;;1.75;1.75;;;;;17.06;79.80;100579.38;5031875;28;8836;-76